• Join FlightAware (Why Join?)
  • Login
  • US Flag 
11:17PM EDT


 

Airport Tracker/Info


-or-


 

Live Flight TrackerFlight Track Log ✈ DAL6116 ✈ 01-May-2013 ✈ KJFK - KRIC

Flight Track Log - Related Links

Times and Time Zones

All times are in EDT time to prevent confusion due to time zone crossing. See the DAL6116 flight status page for this flight to view local times or setup timezone preferences in your user account.

Time Position Orientation Groundspeed Altitude Reporting Facility
EDT Latitude Longitude Course Direction KTS MPH feet Rate Location/Type
03:25PM 40.6167 -73.7833 146° Southeast 159 183 2,100  Level New York TRACON
03:27PM 40.3712 -73.5212 143° Southeast  Level FlightAware Approximate
03:27PM 40.5369 -73.6492 128° Southeast 224 258 6,600  Level New York Center
03:28PM 40.2901 -73.4450 159° South  Level FlightAware Approximate
03:28PM 40.4675 -73.5917 148° Southeast 254 292 9,900  Level New York Center
03:29PM 40.2067 -73.3596 146° Southeast  Level FlightAware Approximate
03:29PM 40.4064 -73.5403 147° Southeast 284 327 11,800  Level New York Center
03:30PM 40.1169 -73.2798 146° Southeast  Level FlightAware Approximate
03:30PM 40.3225 -73.4714 148° Southeast 313 360 13,900  Level New York Center
03:31PM 40.2592 -73.4175 147° Southeast 332 382 15,300 1,800 Climbing New York Center
03:32PM 40.1419 -73.4347 186° South 332 382 17,500 1,200 Climbing New York Center
03:34PM 39.9683 -73.5044 197° South 367 422 18,700 780 Climbing Washington Center
03:35PM 39.8586 -73.5508 198° South 410 472 19,700 960 Climbing Washington Center
03:36PM 39.7600 -73.6400 215° Southwest 437 503 20,700 960 Climbing Washington Center
03:37PM 39.6639 -73.7422 219° Southwest 451 519 21,700 600 Climbing Washington Center
03:38PM 39.5717 -73.8444 221° Southwest 451 519 22,000 120 Climbing Washington Center
03:39PM 39.4772 -73.9489 220° Southwest 451 519 22,000  Level Washington Center
03:40PM 39.3825 -74.0503 220° Southwest 451 519 22,000  Level Washington Center
03:41PM 39.2881 -74.1569 221° Southwest 451 519 22,000  Level Washington Center
03:42PM 39.1811 -74.2717 220° Southwest 456 525 22,000  Level Washington Center
03:43PM 39.0822 -74.3775 220° Southwest 456 525 22,000  Level Washington Center
03:44PM 38.9831 -74.4861 220° Southwest 461 531 22,000  Level Washington Center
03:45PM 38.8839 -74.5917 220° Southwest 466 536 22,000  Level Washington Center
03:46PM 38.7847 -74.6994 220° Southwest 466 536 22,000  Level Washington Center
03:47PM 38.6856 -74.8069 220° Southwest 466 536 22,000  Level Washington Center
03:48PM 38.5881 -74.9092 219° Southwest 466 536 22,000  Level Washington Center
03:49PM 38.4867 -75.0161 220° Southwest 466 536 22,000  Level Washington Center
03:50PM 38.3889 -75.1175 219° Southwest 466 536 22,000  Level Washington Center
03:51PM 38.3122 -75.2000 220° Southwest 466 536 22,000  Level Washington Center
03:52PM 38.2083 -75.3169 222° Southwest 466 536 22,000 -300 Level Washington Center
03:53PM 38.1083 -75.4203 219° Southwest 466 536 21,500 -780 Descending Washington Center
03:54PM 38.0083 -75.5100 215° Southwest 461 531 20,500 -1,200 Descending Washington Center
03:55PM 37.8894 -75.5944 209° Southwest 446 513 19,200 -1,200 Descending Washington Center
03:56PM 37.7872 -75.6733 211° Southwest 446 513 18,200 -900 Descending Washington Center
03:56PM 37.7581 -75.6969 213° Southwest 432 497 18,100 -780 Descending Washington Center
03:56PM 37.7183 -75.7231 207° Southwest 429 494 17,700 -660 Descending Washington Center
03:57PM 37.6850 -75.7519 214° Southwest 446 513 17,600 -720 Descending Washington Center
03:57PM 37.6183 -75.7964 208° Southwest 421 484 17,000 -900 Descending Washington Center
03:58PM 37.5847 -75.8250 214° Southwest 441 507 16,700 -960 Descending Washington Center
03:58PM 37.5181 -75.8772 212° Southwest 418 481 16,000 -1,020 Descending Washington Center
03:59PM 37.4928 -75.9111 227° Southwest 424 488 15,700 -1,020 Descending Washington Center
03:59PM 37.4489 -75.9972 237° Southwest 401 461 15,000 -1,020 Descending Washington Center
04:00PM 37.4342 -76.0286 239° Southwest 403 464 14,700 -1,020 Descending Washington Center
04:00PM 37.3919 -76.1147 238° Southwest 396 456 14,000 -1,020 Descending Washington Center
04:01PM 37.3794 -76.1458 243° Southwest 403 464 13,700 -1,020 Descending Washington Center
04:01PM 37.3350 -76.2292 236° Southwest 386 444 13,000 -1,080 Descending Washington Center
04:02PM 37.3203 -76.2603 239° Southwest 397 457 12,700 -840 Descending Washington Center
04:03PM 37.2803 -76.3514 241° Southwest 381 438 12,100 -960 Descending Washington Center
04:04PM 37.2689 -76.4844 264° West 332 382 11,000 -1,320 Descending Washington Center
04:05PM 37.2783 -76.5942 276° West 298 343 9,500 -1,020 Descending Washington Center
04:07PM 37.3000 -76.7833 278° West 289 333 8,000 -840 Descending Potomac TRACON
04:08PM 37.3167 -76.8833 282° West 283 326 7,100 -1,020 Descending Potomac TRACON
04:09PM 37.3167 -76.9833 270° West 279 321 6,000 -1,260 Descending Potomac TRACON
04:10PM 37.3500 -77.0667 297° West 263 303 4,600 -1,560 Descending Potomac TRACON
04:11PM 37.3833 -77.1500 297° West 258 297 2,900 -1,320 Descending Potomac TRACON
04:12PM 37.4167 -77.2167 302° West 229 264 2,000 -720 Descending Potomac TRACON
04:13PM 37.4500 -77.2667 310° West 186 214 1,500 -300 Descending Potomac TRACON
04:14PM 37.4833 -77.3000 322° Northwest 193 222 1,500 240 Level Potomac TRACON
04:15PM 37.5500 -77.3167 349° North 208 239 2,000 240 Climbing Potomac TRACON
04:16PM 37.6000 -77.3167 360° North 209 241 2,000  Level Potomac TRACON
04:17PM 37.6500 -77.3167 360° North 216 249 2,000  Level Potomac TRACON
04:18PM 37.6333 -77.3833 252° West 214 246 2,000 -60 Level Potomac TRACON
04:19PM 37.6000 -77.3833 180° South 188 216 1,900 -480 Descending Potomac TRACON
04:20PM 37.5500 -77.3500 152° Southeast 139 160 1,100 -840 Descending Potomac TRACON